sensor_id;sensor_type;location;lat;lon;timestamp;P1;durP1;ratioP1;P2;durP2;ratioP2
45382;SDS011;42455;51.660;5.824;2022-12-11T00:01:48;72.0;;;26.5;;
45382;SDS011;42455;51.660;5.824;2022-12-11T00:06:54;76.0;;;28.0;;
45382;SDS011;42455;51.660;5.824;2022-12-11T00:12:00;71.0;;;28.0;;
45382;SDS011;42455;51.660;5.824;2022-12-11T00:17:06;73.0;;;27.0;;
45382;SDS011;42455;51.660;5.824;2022-12-11T00:22:13;79.5;;;27.0;;
45382;SDS011;42455;51.660;5.824;2022-12-11T00:27:19;76.0;;;27.0;;
45382;SDS011;42455;51.660;5.824;2022-12-11T00:32:25;82.0;;;28.0;;
45382;SDS011;42455;51.660;5.824;2022-12-11T00:37:31;80.0;;;28.0;;
45382;SDS011;42455;51.660;5.824;2022-12-11T00:42:37;93.5;;;29.0;;
45382;SDS011;42455;51.660;5.824;2022-12-11T00:47:44;83.0;;;28.0;;
45382;SDS011;42455;51.660;5.824;2022-12-11T00:52:50;82.0;;;29.0;;
45382;SDS011;42455;51.660;5.824;2022-12-11T00:57:56;85.0;;;29.0;;
45382;SDS011;42455;51.660;5.824;2022-12-11T01:03:02;80.5;;;28.0;;
45382;SDS011;42455;51.660;5.824;2022-12-11T01:08:08;80.5;;;29.0;;
45382;SDS011;42455;51.660;5.824;2022-12-11T01:13:15;90.0;;;28.0;;
45382;SDS011;42455;51.660;5.824;2022-12-11T01:18:21;93.0;;;29.0;;
45382;SDS011;42455;51.660;5.824;2022-12-11T01:23:27;75.0;;;28.0;;
45382;SDS011;42455;51.660;5.824;2022-12-11T01:28:33;74.5;;;29.0;;
45382;SDS011;42455;51.660;5.824;2022-12-11T01:33:40;84.0;;;29.0;;
45382;SDS011;42455;51.660;5.824;2022-12-11T01:38:46;83.0;;;29.0;;
45382;SDS011;42455;51.660;5.824;2022-12-11T01:43:57;84.0;;;31.0;;
45382;SDS011;42455;51.660;5.824;2022-12-11T01:48:58;78.5;;;30.0;;
45382;SDS011;42455;51.660;5.824;2022-12-11T01:54:05;85.5;;;31.0;;
45382;SDS011;42455;51.660;5.824;2022-12-11T01:59:11;79.0;;;31.0;;
45382;SDS011;42455;51.660;5.824;2022-12-11T02:04:17;82.0;;;31.0;;
45382;SDS011;42455;51.660;5.824;2022-12-11T02:09:24;78.5;;;31.0;;
45382;SDS011;42455;51.660;5.824;2022-12-11T02:14:31;80.0;;;32.0;;
45382;SDS011;42455;51.660;5.824;2022-12-11T02:19:47;76.5;;;30.0;;
45382;SDS011;42455;51.660;5.824;2022-12-11T02:25:39;71.5;;;30.5;;
45382;SDS011;42455;51.660;5.824;2022-12-11T02:29:48;73.5;;;31.0;;
45382;SDS011;42455;51.660;5.824;2022-12-11T02:34:56;71.5;;;30.0;;
45382;SDS011;42455;51.660;5.824;2022-12-11T02:40:00;76.0;;;31.0;;
45382;SDS011;42455;51.660;5.824;2022-12-11T02:45:06;68.5;;;31.0;;
45382;SDS011;42455;51.660;5.824;2022-12-11T02:50:14;69.0;;;31.0;;
45382;SDS011;42455;51.660;5.824;2022-12-11T02:55:19;72.0;;;31.0;;
45382;SDS011;42455;51.660;5.824;2022-12-11T03:00:25;71.0;;;31.0;;
45382;SDS011;42455;51.660;5.824;2022-12-11T03:05:31;73.5;;;32.0;;
45382;SDS011;42455;51.660;5.824;2022-12-11T03:10:38;63.5;;;30.0;;
45382;SDS011;42455;51.660;5.824;2022-12-11T03:16:03;66.5;;;30.0;;
45382;SDS011;42455;51.660;5.824;2022-12-11T03:20:51;63.0;;;30.0;;
45382;SDS011;42455;51.660;5.824;2022-12-11T03:26:11;64.0;;;30.0;;
45382;SDS011;42455;51.660;5.824;2022-12-11T03:31:06;62.0;;;29.0;;
45382;SDS011;42455;51.660;5.824;2022-12-11T03:36:12;62.5;;;29.0;;
45382;SDS011;42455;51.660;5.824;2022-12-11T03:41:15;54.5;;;28.0;;
45382;SDS011;42455;51.660;5.824;2022-12-11T03:46:22;60.0;;;29.0;;
45382;SDS011;42455;51.660;5.824;2022-12-11T03:51:26;57.0;;;29.0;;
45382;SDS011;42455;51.660;5.824;2022-12-11T03:56:33;58.5;;;28.0;;
45382;SDS011;42455;51.660;5.824;2022-12-11T04:01:39;57.5;;;28.5;;
45382;SDS011;42455;51.660;5.824;2022-12-11T04:06:45;54.5;;;28.0;;
45382;SDS011;42455;51.660;5.824;2022-12-11T04:11:52;56.0;;;29.0;;
45382;SDS011;42455;51.660;5.824;2022-12-11T04:16:58;53.0;;;28.0;;
45382;SDS011;42455;51.660;5.824;2022-12-11T04:22:03;52.0;;;27.0;;
45382;SDS011;42455;51.660;5.824;2022-12-11T04:27:10;51.0;;;27.0;;
45382;SDS011;42455;51.660;5.824;2022-12-11T04:32:16;46.0;;;26.0;;
45382;SDS011;42455;51.660;5.824;2022-12-11T04:37:22;45.0;;;26.0;;
45382;SDS011;42455;51.660;5.824;2022-12-11T04:42:28;47.0;;;26.0;;
45382;SDS011;42455;51.660;5.824;2022-12-11T04:47:35;46.0;;;26.0;;
45382;SDS011;42455;51.660;5.824;2022-12-11T04:52:41;50.0;;;26.0;;
45382;SDS011;42455;51.660;5.824;2022-12-11T04:57:47;46.5;;;26.0;;
45382;SDS011;42455;51.660;5.824;2022-12-11T05:02:53;48.0;;;26.0;;
45382;SDS011;42455;51.660;5.824;2022-12-11T05:07:59;48.0;;;26.0;;
45382;SDS011;42455;51.660;5.824;2022-12-11T05:13:05;47.0;;;26.0;;
45382;SDS011;42455;51.660;5.824;2022-12-11T05:18:12;43.0;;;25.5;;
45382;SDS011;42455;51.660;5.824;2022-12-11T05:23:18;45.0;;;25.0;;
45382;SDS011;42455;51.660;5.824;2022-12-11T05:28:25;47.0;;;25.0;;
45382;SDS011;42455;51.660;5.824;2022-12-11T05:33:31;48.0;;;26.0;;
45382;SDS011;42455;51.660;5.824;2022-12-11T05:38:36;43.0;;;25.0;;
45382;SDS011;42455;51.660;5.824;2022-12-11T05:43:43;44.0;;;24.0;;
45382;SDS011;42455;51.660;5.824;2022-12-11T05:48:49;42.0;;;24.0;;
45382;SDS011;42455;51.660;5.824;2022-12-11T05:53:56;39.0;;;23.5;;
45382;SDS011;42455;51.660;5.824;2022-12-11T05:59:02;40.0;;;23.0;;
45382;SDS011;42455;51.660;5.824;2022-12-11T06:04:08;37.0;;;22.0;;
45382;SDS011;42455;51.660;5.824;2022-12-11T06:09:15;36.0;;;22.0;;
45382;SDS011;42455;51.660;5.824;2022-12-11T06:14:20;43.0;;;23.0;;
45382;SDS011;42455;51.660;5.824;2022-12-11T06:19:26;39.0;;;24.0;;
45382;SDS011;42455;51.660;5.824;2022-12-11T06:24:32;37.0;;;23.0;;
45382;SDS011;42455;51.660;5.824;2022-12-11T06:29:39;39.0;;;23.0;;
45382;SDS011;42455;51.660;5.824;2022-12-11T06:34:45;35.0;;;23.0;;
45382;SDS011;42455;51.660;5.824;2022-12-11T06:39:51;34.0;;;21.0;;
45382;SDS011;42455;51.660;5.824;2022-12-11T06:44:57;27.0;;;20.0;;
45382;SDS011;42455;51.660;5.824;2022-12-11T06:50:04;26.0;;;19.0;;
45382;SDS011;42455;51.660;5.824;2022-12-11T06:55:10;26.5;;;19.0;;
45382;SDS011;42455;51.660;5.824;2022-12-11T07:00:16;27.0;;;19.0;;
45382;SDS011;42455;51.660;5.824;2022-12-11T07:05:22;22.0;;;17.0;;
45382;SDS011;42455;51.660;5.824;2022-12-11T07:10:28;23.0;;;17.5;;
45382;SDS011;42455;51.660;5.824;2022-12-11T07:15:35;21.0;;;17.0;;
45382;SDS011;42455;51.660;5.824;2022-12-11T07:20:41;20.5;;;17.0;;
45382;SDS011;42455;51.660;5.824;2022-12-11T07:25:47;20.0;;;16.0;;
45382;SDS011;42455;51.660;5.824;2022-12-11T07:30:53;19.0;;;16.0;;
45382;SDS011;42455;51.660;5.824;2022-12-11T07:36:00;21.0;;;17.0;;
45382;SDS011;42455;51.660;5.824;2022-12-11T07:41:06;20.0;;;16.0;;
45382;SDS011;42455;51.660;5.824;2022-12-11T07:46:13;21.0;;;17.0;;
45382;SDS011;42455;51.660;5.824;2022-12-11T07:51:19;20.0;;;16.0;;
45382;SDS011;42455;51.660;5.824;2022-12-11T07:56:24;19.0;;;16.0;;
45382;SDS011;42455;51.660;5.824;2022-12-11T08:01:31;21.0;;;16.0;;
45382;SDS011;42455;51.660;5.824;2022-12-11T08:06:37;19.0;;;16.0;;
45382;SDS011;42455;51.660;5.824;2022-12-11T08:11:43;18.0;;;15.0;;
45382;SDS011;42455;51.660;5.824;2022-12-11T08:16:49;19.0;;;16.0;;
45382;SDS011;42455;51.660;5.824;2022-12-11T08:21:55;19.0;;;15.0;;
45382;SDS011;42455;51.660;5.824;2022-12-11T08:27:02;18.5;;;15.0;;
45382;SDS011;42455;51.660;5.824;2022-12-11T08:32:08;19.0;;;15.0;;
45382;SDS011;42455;51.660;5.824;2022-12-11T08:37:14;19.0;;;15.0;;
45382;SDS011;42455;51.660;5.824;2022-12-11T08:42:20;18.0;;;15.0;;
45382;SDS011;42455;51.660;5.824;2022-12-11T08:47:26;20.0;;;17.0;;
45382;SDS011;42455;51.660;5.824;2022-12-11T08:52:33;20.0;;;17.0;;
45382;SDS011;42455;51.660;5.824;2022-12-11T08:57:39;24.0;;;18.0;;
45382;SDS011;42455;51.660;5.824;2022-12-11T09:02:46;22.0;;;17.5;;
45382;SDS011;42455;51.660;5.824;2022-12-11T09:07:51;22.0;;;18.0;;
45382;SDS011;42455;51.660;5.824;2022-12-11T09:12:57;23.5;;;18.0;;
45382;SDS011;42455;51.660;5.824;2022-12-11T09:18:04;23.0;;;18.0;;
45382;SDS011;42455;51.660;5.824;2022-12-11T09:23:09;22.5;;;18.0;;
45382;SDS011;42455;51.660;5.824;2022-12-11T09:28:15;24.0;;;18.0;;
45382;SDS011;42455;51.660;5.824;2022-12-11T09:33:21;23.0;;;18.0;;
45382;SDS011;42455;51.660;5.824;2022-12-11T09:38:27;23.0;;;18.0;;
45382;SDS011;42455;51.660;5.824;2022-12-11T09:43:38;21.5;;;17.0;;
45382;SDS011;42455;51.660;5.824;2022-12-11T09:48:40;22.0;;;17.0;;
45382;SDS011;42455;51.660;5.824;2022-12-11T09:53:46;22.0;;;16.0;;
45382;SDS011;42455;51.660;5.824;2022-12-11T09:59:24;21.0;;;16.0;;
45382;SDS011;42455;51.660;5.824;2022-12-11T10:04:37;22.0;;;17.0;;
45382;SDS011;42455;51.660;5.824;2022-12-11T10:09:26;21.0;;;16.0;;
45382;SDS011;42455;51.660;5.824;2022-12-11T10:14:24;21.0;;;15.5;;
45382;SDS011;42455;51.660;5.824;2022-12-11T10:19:19;21.5;;;16.0;;
45382;SDS011;42455;51.660;5.824;2022-12-11T10:24:24;23.0;;;16.5;;
45382;SDS011;42455;51.660;5.824;2022-12-11T10:29:29;22.0;;;17.0;;
45382;SDS011;42455;51.660;5.824;2022-12-11T10:34:38;24.0;;;18.5;;
45382;SDS011;42455;51.660;5.824;2022-12-11T10:39:42;22.0;;;17.0;;
45382;SDS011;42455;51.660;5.824;2022-12-11T10:44:58;24.0;;;19.0;;
45382;SDS011;42455;51.660;5.824;2022-12-11T10:49:56;23.0;;;18.0;;
45382;SDS011;42455;51.660;5.824;2022-12-11T10:55:02;24.0;;;18.0;;
45382;SDS011;42455;51.660;5.824;2022-12-11T11:00:24;52.0;;;38.0;;
45382;SDS011;42455;51.660;5.824;2022-12-11T11:05:14;22.0;;;19.0;;
45382;SDS011;42455;51.660;5.824;2022-12-11T11:10:19;23.0;;;19.0;;
45382;SDS011;42455;51.660;5.824;2022-12-11T11:15:29;23.0;;;19.0;;
45382;SDS011;42455;51.660;5.824;2022-12-11T11:20:32;22.0;;;18.0;;
45382;SDS011;42455;51.660;5.824;2022-12-11T11:25:38;22.0;;;18.0;;
45382;SDS011;42455;51.660;5.824;2022-12-11T11:31:02;25.0;;;20.0;;
45382;SDS011;42455;51.660;5.824;2022-12-11T11:35:50;25.0;;;20.0;;
45382;SDS011;42455;51.660;5.824;2022-12-11T11:41:04;22.0;;;18.0;;
45382;SDS011;42455;51.660;5.824;2022-12-11T11:46:03;19.0;;;16.0;;
45382;SDS011;42455;51.660;5.824;2022-12-11T11:51:11;22.0;;;19.0;;
45382;SDS011;42455;51.660;5.824;2022-12-11T11:56:17;19.0;;;16.0;;
45382;SDS011;42455;51.660;5.824;2022-12-11T12:01:21;19.0;;;16.0;;
45382;SDS011;42455;51.660;5.824;2022-12-11T12:06:38;20.0;;;14.0;;
45382;SDS011;42455;51.660;5.824;2022-12-11T12:11:43;19.0;;;15.0;;
45382;SDS011;42455;51.660;5.824;2022-12-11T12:16:48;18.0;;;14.0;;
45382;SDS011;42455;51.660;5.824;2022-12-11T12:21:50;20.0;;;14.0;;
45382;SDS011;42455;51.660;5.824;2022-12-11T12:27:07;22.0;;;16.5;;
45382;SDS011;42455;51.660;5.824;2022-12-11T12:32:27;19.0;;;15.0;;
45382;SDS011;42455;51.660;5.824;2022-12-11T12:37:57;19.0;;;15.0;;
45382;SDS011;42455;51.660;5.824;2022-12-11T12:42:34;18.5;;;15.0;;
45382;SDS011;42455;51.660;5.824;2022-12-11T12:47:17;19.5;;;15.0;;
45382;SDS011;42455;51.660;5.824;2022-12-11T12:52:25;19.0;;;14.0;;
45382;SDS011;42455;51.660;5.824;2022-12-11T12:57:29;18.0;;;14.0;;
45382;SDS011;42455;51.660;5.824;2022-12-11T13:02:36;20.0;;;15.0;;
45382;SDS011;42455;51.660;5.824;2022-12-11T13:07:46;19.0;;;15.0;;
45382;SDS011;42455;51.660;5.824;2022-12-11T13:12:48;16.0;;;13.0;;
45382;SDS011;42455;51.660;5.824;2022-12-11T13:17:54;20.0;;;16.5;;
45382;SDS011;42455;51.660;5.824;2022-12-11T13:23:13;17.0;;;14.0;;
45382;SDS011;42455;51.660;5.824;2022-12-11T13:28:17;18.0;;;15.0;;
45382;SDS011;42455;51.660;5.824;2022-12-11T13:33:15;20.0;;;16.0;;
45382;SDS011;42455;51.660;5.824;2022-12-11T13:38:21;19.0;;;15.0;;
45382;SDS011;42455;51.660;5.824;2022-12-11T13:43:28;20.0;;;16.0;;
45382;SDS011;42455;51.660;5.824;2022-12-11T13:48:32;20.0;;;16.0;;
45382;SDS011;42455;51.660;5.824;2022-12-11T13:53:38;19.0;;;15.0;;
45382;SDS011;42455;51.660;5.824;2022-12-11T13:58:44;18.0;;;15.0;;
45382;SDS011;42455;51.660;5.824;2022-12-11T14:03:51;19.0;;;15.0;;
45382;SDS011;42455;51.660;5.824;2022-12-11T14:08:57;19.5;;;16.0;;
45382;SDS011;42455;51.660;5.824;2022-12-11T14:14:03;19.0;;;16.0;;
45382;SDS011;42455;51.660;5.824;2022-12-11T14:19:13;19.0;;;16.0;;
45382;SDS011;42455;51.660;5.824;2022-12-11T14:24:15;20.0;;;16.0;;
45382;SDS011;42455;51.660;5.824;2022-12-11T14:29:24;19.0;;;16.0;;
45382;SDS011;42455;51.660;5.824;2022-12-11T14:34:29;18.0;;;15.0;;
45382;SDS011;42455;51.660;5.824;2022-12-11T14:39:34;19.0;;;15.0;;
45382;SDS011;42455;51.660;5.824;2022-12-11T14:44:41;21.0;;;18.0;;
45382;SDS011;42455;51.660;5.824;2022-12-11T14:49:52;20.0;;;16.0;;
45382;SDS011;42455;51.660;5.824;2022-12-11T14:54:59;57.5;;;44.5;;
45382;SDS011;42455;51.660;5.824;2022-12-11T14:59:58;23.0;;;19.0;;
45382;SDS011;42455;51.660;5.824;2022-12-11T15:05:14;21.0;;;17.0;;
45382;SDS011;42455;51.660;5.824;2022-12-11T15:10:19;21.0;;;18.0;;
45382;SDS011;42455;51.660;5.824;2022-12-11T15:15:16;19.0;;;16.0;;
45382;SDS011;42455;51.660;5.824;2022-12-11T15:20:28;18.0;;;16.0;;
45382;SDS011;42455;51.660;5.824;2022-12-11T15:25:28;18.0;;;15.0;;
45382;SDS011;42455;51.660;5.824;2022-12-11T15:30:34;19.5;;;16.0;;
45382;SDS011;42455;51.660;5.824;2022-12-11T15:35:49;17.0;;;14.0;;
45382;SDS011;42455;51.660;5.824;2022-12-11T15:40:46;18.0;;;15.0;;
45382;SDS011;42455;51.660;5.824;2022-12-11T15:45:52;18.0;;;14.0;;
45382;SDS011;42455;51.660;5.824;2022-12-11T15:50:59;17.0;;;13.0;;
45382;SDS011;42455;51.660;5.824;2022-12-11T15:56:05;18.0;;;14.0;;
45382;SDS011;42455;51.660;5.824;2022-12-11T16:01:11;17.0;;;13.0;;
45382;SDS011;42455;51.660;5.824;2022-12-11T16:06:17;17.0;;;14.0;;
45382;SDS011;42455;51.660;5.824;2022-12-11T16:11:23;17.0;;;13.0;;
45382;SDS011;42455;51.660;5.824;2022-12-11T16:16:30;17.0;;;14.0;;
45382;SDS011;42455;51.660;5.824;2022-12-11T16:21:36;21.0;;;18.5;;
45382;SDS011;42455;51.660;5.824;2022-12-11T16:26:42;25.0;;;22.0;;
45382;SDS011;42455;51.660;5.824;2022-12-11T16:31:48;18.0;;;16.0;;
45382;SDS011;42455;51.660;5.824;2022-12-11T16:36:56;18.0;;;15.0;;
45382;SDS011;42455;51.660;5.824;2022-12-11T16:42:01;18.0;;;15.0;;
45382;SDS011;42455;51.660;5.824;2022-12-11T16:47:07;17.0;;;15.0;;
45382;SDS011;42455;51.660;5.824;2022-12-11T16:52:13;20.0;;;17.0;;
45382;SDS011;42455;51.660;5.824;2022-12-11T16:57:19;22.0;;;20.0;;
45382;SDS011;42455;51.660;5.824;2022-12-11T17:02:26;20.0;;;15.0;;
45382;SDS011;42455;51.660;5.824;2022-12-11T17:07:32;18.0;;;15.0;;
45382;SDS011;42455;51.660;5.824;2022-12-11T17:12:38;19.0;;;16.0;;
45382;SDS011;42455;51.660;5.824;2022-12-11T17:17:44;19.0;;;16.0;;
45382;SDS011;42455;51.660;5.824;2022-12-11T17:22:50;21.0;;;17.0;;
45382;SDS011;42455;51.660;5.824;2022-12-11T17:27:56;38.0;;;34.0;;
45382;SDS011;42455;51.660;5.824;2022-12-11T17:33:03;20.5;;;17.0;;
45382;SDS011;42455;51.660;5.824;2022-12-11T17:43:15;20.0;;;16.0;;
45382;SDS011;42455;51.660;5.824;2022-12-11T17:48:21;21.0;;;17.0;;
45382;SDS011;42455;51.660;5.824;2022-12-11T17:53:28;22.0;;;17.0;;
45382;SDS011;42455;51.660;5.824;2022-12-11T17:58:34;19.0;;;16.0;;
45382;SDS011;42455;51.660;5.824;2022-12-11T18:03:40;22.0;;;17.0;;
45382;SDS011;42455;51.660;5.824;2022-12-11T18:08:46;21.0;;;17.0;;
45382;SDS011;42455;51.660;5.824;2022-12-11T18:13:52;22.0;;;17.0;;
45382;SDS011;42455;51.660;5.824;2022-12-11T18:18:59;22.5;;;17.0;;
45382;SDS011;42455;51.660;5.824;2022-12-11T18:24:05;29.5;;;22.0;;
45382;SDS011;42455;51.660;5.824;2022-12-11T18:29:11;28.0;;;24.0;;
45382;SDS011;42455;51.660;5.824;2022-12-11T18:34:17;24.0;;;19.0;;
45382;SDS011;42455;51.660;5.824;2022-12-11T18:39:23;22.0;;;18.0;;
45382;SDS011;42455;51.660;5.824;2022-12-11T18:44:30;24.0;;;19.0;;
45382;SDS011;42455;51.660;5.824;2022-12-11T18:49:36;22.0;;;18.0;;
45382;SDS011;42455;51.660;5.824;2022-12-11T18:54:42;22.0;;;18.0;;
45382;SDS011;42455;51.660;5.824;2022-12-11T18:59:49;22.0;;;18.0;;
45382;SDS011;42455;51.660;5.824;2022-12-11T19:04:54;44.0;;;31.0;;
45382;SDS011;42455;51.660;5.824;2022-12-11T19:10:01;250.0;;;92.0;;
45382;SDS011;42455;51.660;5.824;2022-12-11T19:15:07;93.5;;;40.5;;
45382;SDS011;42455;51.660;5.824;2022-12-11T19:20:13;32.5;;;24.0;;
45382;SDS011;42455;51.660;5.824;2022-12-11T19:25:19;22.0;;;18.0;;
45382;SDS011;42455;51.660;5.824;2022-12-11T19:30:26;22.0;;;18.0;;
45382;SDS011;42455;51.660;5.824;2022-12-11T19:35:32;22.0;;;18.0;;
45382;SDS011;42455;51.660;5.824;2022-12-11T19:40:39;22.0;;;17.0;;
45382;SDS011;42455;51.660;5.824;2022-12-11T19:45:44;23.0;;;18.0;;
45382;SDS011;42455;51.660;5.824;2022-12-11T19:50:50;21.0;;;17.0;;
45382;SDS011;42455;51.660;5.824;2022-12-11T19:55:57;21.0;;;17.0;;
45382;SDS011;42455;51.660;5.824;2022-12-11T20:01:03;22.0;;;18.0;;
45382;SDS011;42455;51.660;5.824;2022-12-11T20:06:09;21.0;;;17.0;;
45382;SDS011;42455;51.660;5.824;2022-12-11T20:11:16;22.0;;;17.5;;
45382;SDS011;42455;51.660;5.824;2022-12-11T20:16:21;21.0;;;18.0;;
45382;SDS011;42455;51.660;5.824;2022-12-11T20:21:28;21.0;;;17.0;;
45382;SDS011;42455;51.660;5.824;2022-12-11T20:26:34;23.0;;;18.0;;
45382;SDS011;42455;51.660;5.824;2022-12-11T20:31:40;21.0;;;17.0;;
45382;SDS011;42455;51.660;5.824;2022-12-11T20:36:47;23.0;;;18.0;;
45382;SDS011;42455;51.660;5.824;2022-12-11T20:41:52;58.0;;;34.5;;
45382;SDS011;42455;51.660;5.824;2022-12-11T20:46:59;53.0;;;34.0;;
45382;SDS011;42455;51.660;5.824;2022-12-11T20:52:05;26.0;;;19.0;;
45382;SDS011;42455;51.660;5.824;2022-12-11T20:57:10;25.0;;;19.0;;
45382;SDS011;42455;51.660;5.824;2022-12-11T21:02:16;25.0;;;21.0;;
45382;SDS011;42455;51.660;5.824;2022-12-11T21:07:22;21.0;;;17.0;;
45382;SDS011;42455;51.660;5.824;2022-12-11T21:12:29;22.0;;;18.0;;
45382;SDS011;42455;51.660;5.824;2022-12-11T21:17:35;22.0;;;17.0;;
45382;SDS011;42455;51.660;5.824;2022-12-11T21:22:41;20.0;;;16.0;;
45382;SDS011;42455;51.660;5.824;2022-12-11T21:27:47;20.0;;;16.0;;
45382;SDS011;42455;51.660;5.824;2022-12-11T21:32:54;21.0;;;17.0;;
45382;SDS011;42455;51.660;5.824;2022-12-11T21:38:00;19.0;;;16.0;;
45382;SDS011;42455;51.660;5.824;2022-12-11T21:43:06;21.5;;;18.0;;
45382;SDS011;42455;51.660;5.824;2022-12-11T21:48:12;21.0;;;17.5;;
45382;SDS011;42455;51.660;5.824;2022-12-11T21:53:18;20.0;;;17.0;;
45382;SDS011;42455;51.660;5.824;2022-12-11T21:58:25;18.0;;;16.0;;
45382;SDS011;42455;51.660;5.824;2022-12-11T22:03:31;18.0;;;15.0;;
45382;SDS011;42455;51.660;5.824;2022-12-11T22:08:37;19.0;;;16.0;;
45382;SDS011;42455;51.660;5.824;2022-12-11T22:13:43;19.0;;;16.0;;
45382;SDS011;42455;51.660;5.824;2022-12-11T22:18:49;20.0;;;17.0;;
45382;SDS011;42455;51.660;5.824;2022-12-11T22:23:56;21.0;;;18.0;;
45382;SDS011;42455;51.660;5.824;2022-12-11T22:29:02;19.0;;;16.0;;
45382;SDS011;42455;51.660;5.824;2022-12-11T22:34:08;19.0;;;16.0;;
45382;SDS011;42455;51.660;5.824;2022-12-11T22:39:14;18.0;;;16.0;;
45382;SDS011;42455;51.660;5.824;2022-12-11T22:44:20;18.0;;;16.0;;
45382;SDS011;42455;51.660;5.824;2022-12-11T22:49:27;19.0;;;16.0;;
45382;SDS011;42455;51.660;5.824;2022-12-11T22:54:33;20.0;;;17.0;;
45382;SDS011;42455;51.660;5.824;2022-12-11T22:59:39;19.0;;;16.0;;
45382;SDS011;42455;51.660;5.824;2022-12-11T23:04:45;19.0;;;16.0;;
45382;SDS011;42455;51.660;5.824;2022-12-11T23:09:51;19.0;;;16.0;;
45382;SDS011;42455;51.660;5.824;2022-12-11T23:14:58;20.0;;;16.0;;
45382;SDS011;42455;51.660;5.824;2022-12-11T23:20:04;20.0;;;17.0;;
45382;SDS011;42455;51.660;5.824;2022-12-11T23:25:10;20.0;;;16.0;;
45382;SDS011;42455;51.660;5.824;2022-12-11T23:30:16;20.0;;;17.0;;
45382;SDS011;42455;51.660;5.824;2022-12-11T23:35:23;20.0;;;16.0;;
45382;SDS011;42455;51.660;5.824;2022-12-11T23:40:29;20.0;;;16.0;;
45382;SDS011;42455;51.660;5.824;2022-12-11T23:45:35;20.0;;;17.0;;
45382;SDS011;42455;51.660;5.824;2022-12-11T23:50:42;21.0;;;18.0;;
45382;SDS011;42455;51.660;5.824;2022-12-11T23:55:47;21.0;;;17.0;;
